createdAt,value
2023-05-07T00:00:16.899Z,16.16
2023-05-07T00:01:20.126Z,16.11
2023-05-07T00:02:22.142Z,15.95
2023-05-07T00:03:23.865Z,15.88
2023-05-07T00:04:26.009Z,15.93
2023-05-07T00:05:27.817Z,16.01
2023-05-07T00:06:30.040Z,16.09
2023-05-07T00:07:31.845Z,16.13
2023-05-07T00:08:33.409Z,16.20
2023-05-07T00:09:35.251Z,16.24
2023-05-07T00:10:37.200Z,16.27
2023-05-07T00:11:38.748Z,16.26
2023-05-07T00:12:41.894Z,16.26
2023-05-07T00:13:43.520Z,16.16
2023-05-07T00:14:45.087Z,15.96
2023-05-07T00:15:46.623Z,15.89
2023-05-07T00:16:48.244Z,15.82
2023-05-07T00:17:49.908Z,15.71
2023-05-07T00:18:51.465Z,15.71
2023-05-07T00:19:53.137Z,15.73
2023-05-07T00:20:54.988Z,15.75
2023-05-07T00:21:57.459Z,15.78
2023-05-07T00:22:59.058Z,15.78
2023-05-07T00:24:00.658Z,15.82
2023-05-07T00:25:02.175Z,15.84
2023-05-07T00:26:04.788Z,15.89
2023-05-07T00:27:06.480Z,15.91
2023-05-07T00:28:08.036Z,15.92
2023-05-07T00:29:09.624Z,15.96
2023-05-07T00:30:11.927Z,15.98
2023-05-07T00:31:13.815Z,15.99
2023-05-07T00:32:15.813Z,15.99
2023-05-07T00:33:17.483Z,16.01
2023-05-07T00:34:19.961Z,15.99
2023-05-07T00:35:21.635Z,15.87
2023-05-07T00:36:23.253Z,15.82
2023-05-07T00:37:24.888Z,15.88
2023-05-07T00:38:26.498Z,15.89
2023-05-07T00:39:28.047Z,15.85
2023-05-07T00:40:29.640Z,15.83
2023-05-07T00:41:33.994Z,15.83
2023-05-07T00:42:35.614Z,15.85
2023-05-07T00:43:37.213Z,15.87
2023-05-07T00:44:38.822Z,15.87
2023-05-07T00:45:40.466Z,15.85
2023-05-07T00:46:42.075Z,15.78
2023-05-07T00:47:44.509Z,15.78
2023-05-07T00:48:46.307Z,15.75
2023-05-07T00:49:47.909Z,15.77
2023-05-07T00:50:49.494Z,15.78
2023-05-07T00:51:51.480Z,15.80
2023-05-07T00:52:53.877Z,15.75
2023-05-07T00:53:55.606Z,15.68
2023-05-07T00:54:57.262Z,15.64
2023-05-07T00:55:58.961Z,15.59
2023-05-07T00:57:01.364Z,15.53
2023-05-07T00:58:03.019Z,15.53
2023-05-07T00:59:04.728Z,15.48
2023-05-07T01:00:08.839Z,15.29
2023-05-07T01:01:10.606Z,15.13
2023-05-07T01:02:12.698Z,14.95
2023-05-07T01:03:14.244Z,14.87
2023-05-07T01:04:16.377Z,14.83
2023-05-07T01:05:21.218Z,14.76
2023-05-07T01:06:26.680Z,14.72
2023-05-07T01:07:30.357Z,14.79
2023-05-07T01:08:33.046Z,14.84
2023-05-07T01:09:36.423Z,14.82
2023-05-07T01:10:38.074Z,14.73
2023-05-07T01:11:40.799Z,14.72
2023-05-07T01:12:43.840Z,14.73
2023-05-07T01:13:45.958Z,14.75
2023-05-07T01:14:47.714Z,14.73
2023-05-07T01:15:49.281Z,14.69
2023-05-07T01:16:52.200Z,14.55
2023-05-07T01:17:54.165Z,14.38
2023-05-07T01:18:56.210Z,14.26
2023-05-07T01:19:57.794Z,14.19
2023-05-07T01:21:00.820Z,14.16
2023-05-07T01:22:08.421Z,14.16
2023-05-07T01:23:12.484Z,14.14
2023-05-07T01:24:14.447Z,14.03
2023-05-07T01:25:17.658Z,13.94
2023-05-07T01:26:20.680Z,13.92
2023-05-07T01:27:22.257Z,13.86
2023-05-07T01:28:23.840Z,13.78
2023-05-07T01:29:25.361Z,13.74
2023-05-07T01:30:27.589Z,13.75
2023-05-07T01:31:30.019Z,13.83
2023-05-07T01:32:50.250Z,13.97
2023-05-07T01:33:53.403Z,14.12
2023-05-07T01:34:56.365Z,14.20
2023-05-07T01:36:01.286Z,14.22
2023-05-07T01:37:03.865Z,14.27
2023-05-07T01:38:07.173Z,14.34
2023-05-07T01:39:10.426Z,14.44
2023-05-07T01:40:12.536Z,14.48
2023-05-07T01:41:14.440Z,14.42
2023-05-07T01:42:16.222Z,14.45
2023-05-07T01:43:18.464Z,14.54
2023-05-07T01:44:20.705Z,14.63
2023-05-07T01:45:22.551Z,14.68
2023-05-07T01:46:24.615Z,14.70
2023-05-07T01:47:26.908Z,14.71
2023-05-07T01:48:29.281Z,14.65
2023-05-07T01:49:31.516Z,14.70
2023-05-07T01:50:33.467Z,14.77
2023-05-07T01:51:35.552Z,14.86
2023-05-07T01:52:40.095Z,14.95
2023-05-07T01:53:41.793Z,15.01
2023-05-07T01:54:43.710Z,15.03
2023-05-07T01:55:46.237Z,15.05
2023-05-07T01:56:49.945Z,15.05
2023-05-07T01:57:51.520Z,15.09
2023-05-07T01:58:53.360Z,15.11
2023-05-07T01:59:54.878Z,15.14
2023-05-07T02:00:56.428Z,15.17
2023-05-07T02:01:58.001Z,15.18
2023-05-07T02:02:59.748Z,15.20
2023-05-07T02:04:01.557Z,15.22
2023-05-07T02:05:03.282Z,15.23
2023-05-07T02:06:04.879Z,15.24
2023-05-07T02:07:06.527Z,15.25
2023-05-07T02:08:08.047Z,15.25
2023-05-07T02:09:12.792Z,15.27
2023-05-07T02:10:14.395Z,15.30
2023-05-07T02:11:16.104Z,15.30
2023-05-07T02:12:17.617Z,15.33
2023-05-07T02:13:19.322Z,15.34
2023-05-07T02:14:21.643Z,15.36
2023-05-07T02:15:23.182Z,15.37
2023-05-07T02:16:25.066Z,15.37
2023-05-07T02:17:27.035Z,15.32
2023-05-07T02:18:28.654Z,15.23
2023-05-07T02:19:30.196Z,15.20
2023-05-07T02:20:31.898Z,15.22
2023-05-07T02:21:33.442Z,15.23
2023-05-07T02:22:35.105Z,15.25
2023-05-07T02:23:36.714Z,15.26
2023-05-07T02:24:38.241Z,15.15
2023-05-07T02:25:39.916Z,15.10
2023-05-07T02:26:42.431Z,15.03
2023-05-07T02:27:43.995Z,14.98
2023-05-07T02:28:45.562Z,14.85
2023-05-07T02:29:47.090Z,14.76
2023-05-07T02:30:48.639Z,14.37
2023-05-07T02:31:54.094Z,13.92
2023-05-07T02:32:55.962Z,13.54
2023-05-07T02:33:57.553Z,13.42
2023-05-07T02:34:59.112Z,13.36
2023-05-07T02:36:13.442Z,13.31
2023-05-07T02:37:14.991Z,13.26
2023-05-07T02:38:16.538Z,13.11
2023-05-07T02:39:18.104Z,12.96
2023-05-07T02:40:19.761Z,12.88
2023-05-07T02:41:21.583Z,12.86
2023-05-07T02:42:23.155Z,12.74
2023-05-07T02:43:24.708Z,12.67
2023-05-07T02:44:26.449Z,12.68
2023-05-07T02:45:28.019Z,12.67
2023-05-07T02:46:29.614Z,12.69
2023-05-07T02:47:31.253Z,12.74
2023-05-07T02:48:33.063Z,12.85
2023-05-07T02:49:35.001Z,12.97
2023-05-07T02:50:36.539Z,13.08
2023-05-07T02:51:38.129Z,13.13
2023-05-07T02:52:39.796Z,13.23
2023-05-07T02:53:41.460Z,13.31
2023-05-07T02:54:43.019Z,13.36
2023-05-07T02:55:44.951Z,13.37
2023-05-07T02:56:46.468Z,13.41
2023-05-07T02:57:48.030Z,13.51
2023-05-07T02:58:49.605Z,13.61
2023-05-07T02:59:51.852Z,13.70
2023-05-07T03:00:53.968Z,13.76
2023-05-07T03:01:55.652Z,13.83
2023-05-07T03:02:57.394Z,13.88
2023-05-07T03:03:59.006Z,13.91
2023-05-07T03:05:00.576Z,13.95
2023-05-07T03:06:02.625Z,14.00
2023-05-07T03:07:04.175Z,14.07
2023-05-07T03:08:05.750Z,14.11
2023-05-07T03:09:07.317Z,14.17
2023-05-07T03:10:09.408Z,14.21
2023-05-07T03:11:11.281Z,14.26
2023-05-07T03:12:12.788Z,14.28
2023-05-07T03:13:14.437Z,14.29
2023-05-07T03:14:16.014Z,14.24
2023-05-07T03:15:17.889Z,14.22
2023-05-07T03:16:19.526Z,14.20
2023-05-07T03:17:22.071Z,14.18
2023-05-07T03:18:23.782Z,14.20
2023-05-07T03:19:25.340Z,14.25
2023-05-07T03:20:27.016Z,14.31
2023-05-07T03:21:28.616Z,14.46
2023-05-07T03:22:30.327Z,14.49
2023-05-07T03:23:31.927Z,14.48
2023-05-07T03:24:33.578Z,14.22
2023-05-07T03:25:35.296Z,14.05
2023-05-07T03:26:36.839Z,13.84
2023-05-07T03:27:39.117Z,13.64
2023-05-07T03:28:40.727Z,13.53
2023-05-07T03:29:42.273Z,13.46
2023-05-07T03:30:45.137Z,13.33
2023-05-07T03:31:46.893Z,13.27
2023-05-07T03:32:48.661Z,13.19
2023-05-07T03:33:55.701Z,13.12
2023-05-07T03:34:57.426Z,13.13
2023-05-07T03:35:58.942Z,13.11
2023-05-07T03:37:01.242Z,13.07
2023-05-07T03:38:02.812Z,13.05
2023-05-07T03:39:04.387Z,13.02
2023-05-07T03:40:06.950Z,12.95
2023-05-07T03:41:08.571Z,12.93
2023-05-07T03:42:10.267Z,12.90
2023-05-07T03:43:11.837Z,12.88
2023-05-07T03:44:13.350Z,12.81
2023-05-07T03:45:14.968Z,12.81
2023-05-07T03:46:16.612Z,12.81
2023-05-07T03:47:18.252Z,12.77
2023-05-07T03:48:19.878Z,12.64
2023-05-07T03:49:21.391Z,12.59
2023-05-07T03:50:22.984Z,12.51
2023-05-07T03:51:24.600Z,12.52
2023-05-07T03:52:27.131Z,12.57
2023-05-07T03:53:28.721Z,12.59
2023-05-07T03:54:31.426Z,12.67
2023-05-07T03:55:32.965Z,12.71
2023-05-07T03:56:34.465Z,12.81
2023-05-07T03:57:36.097Z,12.88
2023-05-07T03:58:37.606Z,12.97
2023-05-07T03:59:39.119Z,13.02
2023-05-07T04:00:41.576Z,13.00
2023-05-07T04:01:43.164Z,12.98
2023-05-07T04:02:44.853Z,12.91
2023-05-07T04:03:46.673Z,12.78
2023-05-07T04:04:50.216Z,12.79
2023-05-07T04:05:51.796Z,12.91
2023-05-07T04:06:54.035Z,12.99
2023-05-07T04:07:55.592Z,13.12
2023-05-07T04:08:57.178Z,13.24
2023-05-07T04:09:58.862Z,13.34
2023-05-07T04:11:01.305Z,13.41
2023-05-07T04:12:03.221Z,13.51
2023-05-07T04:13:04.856Z,13.62
2023-05-07T04:14:06.717Z,13.66
2023-05-07T04:15:08.762Z,13.73
2023-05-07T04:16:10.406Z,13.80
2023-05-07T04:17:12.027Z,13.87
2023-05-07T04:18:13.574Z,13.93
2023-05-07T04:19:15.258Z,13.96
2023-05-07T04:20:18.681Z,13.93
2023-05-07T04:21:21.685Z,13.83
2023-05-07T04:22:23.174Z,13.78
2023-05-07T04:23:24.756Z,13.83
2023-05-07T04:24:26.290Z,13.92
2023-05-07T04:25:27.868Z,14.06
2023-05-07T04:26:29.454Z,14.26
2023-05-07T04:27:31.016Z,14.43
2023-05-07T04:28:32.554Z,14.62
2023-05-07T04:29:34.097Z,14.78
2023-05-07T04:30:35.684Z,14.86
2023-05-07T04:31:37.284Z,14.92
2023-05-07T04:32:40.061Z,14.94
2023-05-07T04:33:41.688Z,15.07
2023-05-07T04:34:43.413Z,15.22
2023-05-07T04:35:45.111Z,15.33
2023-05-07T04:36:47.247Z,15.38
2023-05-07T04:37:48.884Z,15.50
2023-05-07T04:38:50.580Z,15.63
2023-05-07T04:39:52.115Z,15.84
2023-05-07T04:40:53.987Z,15.93
2023-05-07T04:41:55.608Z,16.04
2023-05-07T04:42:57.136Z,16.14
2023-05-07T04:43:59.925Z,16.20
2023-05-07T04:45:02.081Z,16.31
2023-05-07T04:46:03.634Z,16.40
2023-05-07T04:47:05.542Z,16.42
2023-05-07T04:48:07.119Z,16.55
2023-05-07T04:49:08.691Z,16.72
2023-05-07T04:50:10.768Z,16.81
2023-05-07T04:51:12.442Z,16.88
2023-05-07T04:52:13.959Z,16.93
2023-05-07T04:53:15.641Z,16.77
2023-05-07T04:54:17.191Z,16.79
2023-05-07T04:55:18.845Z,16.87
2023-05-07T04:56:21.375Z,16.96
2023-05-07T04:57:22.947Z,16.92
2023-05-07T04:58:25.001Z,16.90
2023-05-07T04:59:26.589Z,16.81
2023-05-07T05:00:28.132Z,16.91
2023-05-07T05:01:29.856Z,17.00
2023-05-07T05:02:31.459Z,17.04
2023-05-07T05:03:33.384Z,17.15
2023-05-07T05:04:35.008Z,17.22
2023-05-07T05:05:36.800Z,17.22
2023-05-07T05:06:38.320Z,17.35
2023-05-07T05:07:39.836Z,17.48
2023-05-07T05:08:41.343Z,17.61
2023-05-07T05:09:42.856Z,17.64
2023-05-07T05:10:44.505Z,17.70
2023-05-07T05:11:46.222Z,17.61
2023-05-07T05:12:47.911Z,17.74
2023-05-07T05:13:50.540Z,17.84
2023-05-07T05:14:52.208Z,17.89
2023-05-07T05:15:53.789Z,17.94
2023-05-07T05:16:55.381Z,17.97
2023-05-07T05:17:56.965Z,17.85
2023-05-07T05:18:58.591Z,17.92
2023-05-07T05:20:00.249Z,17.98
2023-05-07T05:21:01.825Z,17.98
2023-05-07T05:22:04.880Z,17.99
2023-05-07T05:23:07.065Z,18.07
2023-05-07T05:24:08.846Z,18.15
2023-05-07T05:25:10.550Z,18.21
2023-05-07T05:26:12.459Z,18.28
2023-05-07T05:27:14.010Z,18.38
2023-05-07T05:28:15.594Z,18.45
2023-05-07T05:29:17.155Z,18.52
2023-05-07T05:30:19.574Z,18.47
2023-05-07T05:31:22.406Z,18.48
2023-05-07T05:32:23.993Z,18.57
2023-05-07T05:33:25.628Z,18.68
2023-05-07T05:34:27.142Z,18.86
2023-05-07T05:35:28.796Z,18.96
2023-05-07T05:36:31.653Z,19.14
2023-05-07T05:37:33.268Z,19.04
2023-05-07T05:38:34.892Z,18.95
2023-05-07T05:39:36.700Z,18.95
2023-05-07T05:40:38.303Z,18.88
2023-05-07T05:41:39.977Z,18.90
2023-05-07T05:42:41.477Z,18.98
2023-05-07T05:43:43.029Z,19.06
2023-05-07T05:44:44.717Z,19.14
2023-05-07T05:45:46.361Z,19.14
2023-05-07T05:46:48.118Z,19.02
2023-05-07T05:47:49.975Z,18.91
2023-05-07T05:48:51.594Z,18.97
2023-05-07T05:49:53.146Z,19.07
2023-05-07T05:50:54.705Z,19.26
2023-05-07T05:51:57.004Z,19.32
2023-05-07T05:53:00.483Z,19.40
2023-05-07T05:54:02.142Z,19.43
2023-05-07T05:55:03.932Z,19.52
2023-05-07T05:56:05.996Z,19.38
2023-05-07T05:57:07.618Z,19.35
2023-05-07T05:58:10.302Z,19.40
2023-05-07T05:59:12.043Z,19.51
2023-05-07T06:00:14.214Z,19.62
2023-05-07T06:02:18.999Z,19.76
2023-05-07T06:03:20.686Z,19.86
2023-05-07T06:04:22.341Z,19.89
2023-05-07T06:05:23.919Z,19.85
2023-05-07T06:06:25.540Z,19.97
2023-05-07T06:07:27.045Z,20.10
2023-05-07T06:08:31.837Z,20.14
2023-05-07T06:09:33.392Z,20.04
2023-05-07T06:10:36.532Z,19.63
2023-05-07T06:11:38.210Z,19.16
2023-05-07T06:12:41.042Z,19.14
2023-05-07T06:13:42.590Z,19.34
2023-05-07T06:14:44.882Z,19.09
2023-05-07T06:15:46.401Z,18.89
2023-05-07T06:16:48.086Z,18.73
2023-05-07T06:17:50.343Z,18.70
2023-05-07T06:18:51.967Z,18.91
2023-05-07T06:19:53.569Z,19.23
2023-05-07T06:20:55.110Z,19.46
2023-05-07T06:21:59.360Z,19.61
2023-05-07T06:23:01.043Z,19.76
2023-05-07T06:24:03.230Z,19.83
2023-05-07T06:25:05.142Z,19.96
2023-05-07T06:26:06.704Z,20.01
2023-05-07T06:27:08.287Z,20.18
2023-05-07T06:28:12.233Z,20.37
2023-05-07T06:29:13.792Z,20.47
2023-05-07T06:30:15.488Z,20.55
2023-05-07T06:31:18.682Z,20.65
2023-05-07T06:32:20.589Z,20.65
2023-05-07T06:33:22.161Z,20.51
2023-05-07T06:34:23.716Z,20.51
2023-05-07T06:35:25.309Z,20.36
2023-05-07T06:36:27.481Z,20.21
2023-05-07T06:37:29.041Z,20.39
2023-05-07T06:38:30.769Z,20.61
2023-05-07T06:39:32.796Z,20.64
2023-05-07T06:40:34.385Z,20.46
2023-05-07T06:41:36.651Z,20.15
2023-05-07T06:42:38.732Z,20.32
2023-05-07T06:43:40.509Z,20.38
2023-05-07T06:44:42.077Z,20.53
2023-05-07T06:45:43.656Z,20.68
2023-05-07T06:46:45.254Z,20.84
2023-05-07T06:47:47.013Z,21.06
2023-05-07T06:48:48.579Z,21.22
2023-05-07T06:49:50.288Z,21.29
2023-05-07T06:50:52.135Z,21.41
2023-05-07T06:51:53.854Z,21.48
2023-05-07T06:52:55.517Z,21.55
2023-05-07T06:53:57.069Z,21.44
2023-05-07T06:54:58.691Z,21.11
2023-05-07T06:56:00.283Z,20.79
2023-05-07T06:57:01.844Z,20.69
2023-05-07T06:58:03.429Z,20.87
2023-05-07T06:59:04.997Z,21.19
2023-05-07T07:00:10.321Z,21.50
2023-05-07T07:01:12.281Z,21.79
2023-05-07T07:02:13.848Z,21.95
2023-05-07T07:03:15.728Z,22.13
2023-05-07T07:04:17.316Z,22.37
2023-05-07T07:05:18.988Z,22.46
2023-05-07T07:06:21.126Z,22.64
2023-05-07T07:07:22.860Z,22.83
2023-05-07T07:08:24.517Z,22.97
2023-05-07T07:09:26.038Z,23.08
2023-05-07T07:10:27.591Z,23.13
2023-05-07T07:11:32.428Z,23.00
2023-05-07T07:12:33.956Z,22.89
2023-05-07T07:13:35.517Z,22.45
2023-05-07T07:14:37.224Z,22.03
2023-05-07T07:15:38.889Z,21.67
2023-05-07T07:16:43.410Z,21.43
2023-05-07T07:17:44.975Z,21.51
2023-05-07T07:18:46.556Z,21.53
2023-05-07T07:19:48.161Z,21.61
2023-05-07T07:20:49.825Z,21.76
2023-05-07T07:21:51.379Z,21.74
2023-05-07T07:22:52.945Z,21.49
2023-05-07T07:23:54.566Z,21.32
2023-05-07T07:24:56.192Z,21.29
2023-05-07T07:25:57.820Z,21.18
2023-05-07T07:28:28.354Z,21.58
2023-05-07T07:29:29.943Z,21.87
2023-05-07T07:30:31.678Z,22.11
2023-05-07T07:31:33.328Z,22.16
2023-05-07T07:32:35.772Z,22.30
2023-05-07T07:33:37.518Z,22.43
2023-05-07T07:34:39.073Z,22.50
2023-05-07T07:35:40.633Z,22.67
2023-05-07T07:36:46.279Z,22.35
2023-05-07T07:37:50.913Z,22.51
2023-05-07T07:38:52.584Z,22.25
2023-05-07T07:39:54.180Z,22.17
2023-05-07T07:40:55.941Z,22.45
2023-05-07T07:41:57.478Z,22.69
2023-05-07T07:42:59.735Z,22.88
2023-05-07T07:44:01.319Z,23.09
2023-05-07T07:45:03.804Z,23.26
2023-05-07T07:46:05.346Z,23.46
2023-05-07T07:47:07.002Z,23.57
2023-05-07T07:48:08.680Z,23.44
2023-05-07T07:49:10.353Z,23.32
2023-05-07T07:50:16.527Z,23.27
2023-05-07T07:51:23.656Z,23.14
2023-05-07T07:52:25.386Z,23.01
2023-05-07T07:53:26.950Z,23.16
2023-05-07T07:54:28.586Z,23.16
2023-05-07T07:55:30.131Z,23.10
2023-05-07T07:56:34.378Z,22.97
2023-05-07T07:57:35.971Z,22.93
2023-05-07T07:58:38.830Z,22.82
2023-05-07T07:59:40.724Z,22.79
2023-05-07T08:00:42.423Z,22.80
2023-05-07T08:01:43.967Z,22.80
2023-05-07T08:02:45.876Z,22.87
2023-05-07T08:03:47.570Z,23.07
2023-05-07T08:04:49.140Z,23.17
2023-05-07T08:05:52.186Z,23.24
2023-05-07T08:06:55.329Z,22.99
2023-05-07T08:07:56.934Z,22.85
2023-05-07T08:08:58.567Z,22.95
2023-05-07T08:10:00.170Z,23.19
2023-05-07T08:11:02.039Z,23.43
2023-05-07T08:12:03.923Z,23.63
2023-05-07T08:13:06.102Z,23.60
2023-05-07T08:14:07.644Z,23.39
2023-05-07T08:15:09.830Z,23.21
2023-05-07T08:16:11.509Z,23.11
2023-05-07T08:17:13.952Z,22.76
2023-05-07T08:18:16.164Z,22.59
2023-05-07T08:19:17.850Z,22.58
2023-05-07T08:20:19.540Z,22.39
2023-05-07T08:21:21.305Z,22.59
2023-05-07T08:22:23.850Z,22.77
2023-05-07T08:23:25.461Z,22.94
2023-05-07T08:24:27.032Z,23.13
2023-05-07T08:25:28.604Z,23.27
2023-05-07T08:26:30.270Z,23.33
2023-05-07T08:27:31.843Z,23.56
2023-05-07T08:28:33.403Z,23.82
2023-05-07T08:29:34.936Z,23.93
2023-05-07T08:31:40.411Z,23.97
2023-05-07T08:32:42.118Z,23.86
2023-05-07T08:33:43.637Z,23.55
2023-05-07T08:34:45.265Z,23.54
2023-05-07T08:35:46.865Z,23.50
2023-05-07T08:36:49.459Z,23.30
2023-05-07T08:37:51.081Z,23.19
2023-05-07T08:38:53.556Z,23.10
2023-05-07T08:39:55.104Z,22.87
2023-05-07T08:40:56.869Z,22.91
2023-05-07T08:42:01.395Z,23.06
2023-05-07T08:43:04.032Z,23.30
2023-05-07T08:44:12.670Z,23.51
2023-05-07T08:45:14.502Z,23.64
2023-05-07T08:46:21.906Z,23.82
2023-05-07T08:47:29.884Z,23.93
2023-05-07T08:48:33.639Z,24.02
2023-05-07T08:49:36.046Z,24.17
2023-05-07T08:50:37.916Z,24.17
2023-05-07T08:51:39.668Z,24.24
2023-05-07T08:52:41.925Z,24.38
2023-05-07T08:53:43.871Z,24.43
2023-05-07T08:54:45.772Z,24.52
2023-05-07T08:55:48.250Z,24.63
2023-05-07T08:56:49.926Z,24.71
2023-05-07T08:57:53.682Z,24.70
2023-05-07T08:58:57.742Z,24.79
2023-05-07T08:59:59.434Z,24.86
2023-05-07T09:01:05.066Z,24.90
2023-05-07T09:02:11.227Z,24.86
2023-05-07T09:03:13.805Z,24.84
2023-05-07T09:04:15.935Z,24.81
2023-05-07T09:05:17.656Z,24.82
2023-05-07T09:06:20.007Z,24.88
2023-05-07T09:07:22.454Z,25.01
2023-05-07T09:08:27.536Z,25.13
2023-05-07T09:09:29.051Z,25.25
2023-05-07T09:10:31.209Z,25.37
2023-05-07T09:11:32.954Z,25.41
2023-05-07T09:12:36.327Z,25.28
2023-05-07T09:13:38.813Z,25.15
2023-05-07T09:14:40.598Z,25.14
2023-05-07T09:15:42.291Z,25.24
2023-05-07T09:16:43.872Z,25.11
2023-05-07T09:17:45.635Z,25.03
2023-05-07T09:18:48.620Z,24.95
2023-05-07T09:19:50.231Z,24.84
2023-05-07T09:20:52.064Z,24.73
2023-05-07T09:22:01.993Z,24.53
2023-05-07T09:23:04.097Z,24.45
2023-05-07T09:24:06.128Z,24.39
2023-05-07T09:25:09.597Z,24.39
2023-05-07T09:26:12.997Z,24.36
2023-05-07T09:27:14.617Z,24.34
2023-05-07T09:28:16.200Z,24.25
2023-05-07T09:29:18.804Z,24.24
2023-05-07T09:30:20.347Z,24.31
2023-05-07T09:31:24.461Z,24.38
2023-05-07T09:32:26.392Z,24.33
2023-05-07T09:33:28.804Z,24.43
2023-05-07T09:34:33.438Z,24.59
2023-05-07T09:35:35.035Z,24.71
2023-05-07T09:36:36.712Z,24.62
2023-05-07T09:37:38.362Z,24.75
2023-05-07T09:38:40.465Z,24.73
2023-05-07T09:39:47.251Z,24.79
2023-05-07T09:40:48.903Z,24.88
2023-05-07T09:41:52.277Z,24.98
2023-05-07T09:42:54.475Z,24.92
2023-05-07T09:43:57.077Z,25.03
2023-05-07T09:45:00.406Z,25.08
2023-05-07T09:46:08.605Z,25.05
2023-05-07T09:47:11.680Z,25.00
2023-05-07T09:48:18.045Z,25.07
2023-05-07T09:49:24.629Z,25.15
2023-05-07T09:50:31.267Z,25.17
2023-05-07T09:51:44.223Z,25.16
2023-05-07T09:52:46.206Z,25.03
2023-05-07T09:53:49.449Z,24.94
2023-05-07T09:54:52.205Z,25.00
2023-05-07T09:55:54.025Z,25.14
2023-05-07T09:56:56.387Z,25.25
2023-05-07T09:57:59.703Z,25.13
2023-05-07T09:59:01.935Z,25.15
2023-05-07T10:00:09.033Z,25.22
2023-05-07T10:01:12.464Z,25.29
2023-05-07T10:02:15.795Z,25.27
2023-05-07T10:03:19.305Z,25.27
2023-05-07T10:04:22.108Z,25.24
2023-05-07T10:05:23.799Z,25.26
2023-05-07T10:06:26.629Z,25.27
2023-05-07T10:07:28.838Z,25.22
2023-05-07T10:08:31.756Z,25.14
2023-05-07T10:09:33.689Z,25.05
2023-05-07T10:10:35.448Z,24.85
2023-05-07T10:11:38.123Z,24.83
2023-05-07T10:12:41.608Z,24.77
2023-05-07T10:13:44.406Z,24.77
2023-05-07T10:14:47.032Z,24.80
2023-05-07T10:15:49.066Z,24.72
2023-05-07T10:16:50.964Z,24.72
2023-05-07T10:17:54.417Z,24.68
2023-05-07T10:18:56.972Z,24.44
2023-05-07T10:19:58.617Z,24.43
2023-05-07T10:21:14.796Z,24.48
2023-05-07T10:22:17.747Z,24.60
2023-05-07T10:23:24.851Z,24.62
2023-05-07T10:24:28.293Z,24.66
2023-05-07T10:25:31.809Z,24.75
2023-05-07T10:26:35.737Z,24.81
2023-05-07T10:27:38.077Z,24.78
2023-05-07T10:28:42.622Z,24.85
2023-05-07T10:29:54.294Z,24.85
2023-05-07T10:31:20.608Z,24.88
2023-05-07T10:32:27.835Z,24.78
2023-05-07T10:33:31.496Z,24.73
2023-05-07T10:34:43.230Z,24.55
2023-05-07T10:35:48.006Z,24.51
2023-05-07T10:36:51.387Z,24.55
2023-05-07T10:37:53.739Z,24.40
2023-05-07T10:38:56.317Z,24.17
2023-05-07T10:39:58.692Z,23.91
2023-05-07T10:41:00.353Z,24.01
2023-05-07T10:42:12.991Z,24.10
2023-05-07T10:43:14.737Z,24.33
2023-05-07T10:44:31.488Z,24.52
2023-05-07T10:45:33.853Z,24.62
2023-05-07T10:46:36.639Z,24.75
2023-05-07T10:48:13.763Z,24.91
2023-05-07T10:49:24.586Z,24.98
2023-05-07T10:50:26.463Z,25.09
2023-05-07T10:51:28.936Z,25.13
2023-05-07T10:52:31.322Z,25.20
2023-05-07T10:53:32.864Z,25.19
2023-05-07T10:54:37.606Z,25.26
2023-05-07T10:55:39.493Z,25.26
2023-05-07T10:56:44.125Z,25.26
2023-05-07T10:57:45.753Z,25.27
2023-05-07T10:58:47.301Z,25.35
2023-05-07T10:59:48.921Z,25.37
2023-05-07T11:00:50.681Z,25.42
2023-05-07T11:01:56.984Z,25.39
2023-05-07T11:03:01.736Z,25.38
2023-05-07T11:04:30.781Z,25.40
2023-05-07T11:05:36.625Z,25.40
2023-05-07T11:06:39.691Z,25.40
2023-05-07T11:07:41.257Z,25.41
2023-05-07T11:08:54.688Z,25.45
2023-05-07T11:09:59.492Z,25.40
2023-05-07T11:11:01.146Z,25.29
2023-05-07T11:12:02.751Z,25.37
2023-05-07T11:13:04.335Z,25.49
2023-05-07T11:14:05.944Z,25.45
2023-05-07T11:15:44.319Z,25.51
2023-05-07T11:16:46.880Z,25.57
2023-05-07T11:17:59.531Z,25.69
2023-05-07T11:19:01.181Z,25.70
2023-05-07T11:20:03.469Z,25.70
2023-05-07T11:21:05.479Z,25.56
2023-05-07T11:22:33.015Z,25.38
2023-05-07T11:23:34.549Z,25.25
2023-05-07T11:24:43.324Z,25.20
2023-05-07T11:25:44.993Z,25.20
2023-05-07T11:26:51.408Z,25.32
2023-05-07T11:27:53.512Z,25.37
2023-05-07T11:28:55.716Z,25.28
2023-05-07T11:29:57.476Z,25.21
2023-05-07T11:30:59.230Z,25.30
2023-05-07T11:32:02.213Z,25.31
2023-05-07T11:33:05.366Z,25.25
2023-05-07T11:34:07.736Z,25.16
2023-05-07T11:35:10.262Z,25.08
2023-05-07T11:36:12.533Z,25.04
2023-05-07T11:37:18.480Z,25.04
2023-05-07T11:38:20.565Z,25.00
2023-05-07T11:39:33.884Z,24.94
2023-05-07T11:40:35.460Z,24.73
2023-05-07T11:41:40.886Z,24.69
2023-05-07T11:42:44.242Z,24.70
2023-05-07T11:43:57.276Z,24.67
2023-05-07T11:44:59.530Z,24.56
2023-05-07T11:46:11.984Z,24.59
2023-05-07T11:47:19.502Z,24.59
2023-05-07T11:48:23.530Z,24.70
2023-05-07T11:49:27.933Z,24.78
2023-05-07T11:50:29.443Z,24.74
2023-05-07T11:51:31.767Z,24.72
2023-05-07T11:52:35.694Z,24.63
2023-05-07T11:53:43.450Z,24.60
2023-05-07T11:54:58.627Z,24.49
2023-05-07T11:56:00.199Z,24.50
2023-05-07T11:57:02.329Z,24.44
2023-05-07T11:58:03.926Z,24.49
2023-05-07T11:59:06.174Z,24.58
2023-05-07T12:00:08.318Z,24.53
2023-05-07T12:01:11.422Z,24.55
2023-05-07T12:02:15.079Z,24.59
2023-05-07T12:03:16.782Z,24.64
2023-05-07T12:04:22.036Z,24.69
2023-05-07T12:05:23.744Z,24.64
2023-05-07T12:06:25.334Z,24.65
2023-05-07T12:07:26.978Z,24.70
2023-05-07T12:08:28.532Z,24.77
2023-05-07T12:09:30.763Z,24.80
2023-05-07T12:10:32.429Z,24.83
2023-05-07T12:11:34.058Z,24.81
2023-05-07T12:12:47.802Z,24.80
2023-05-07T12:13:49.429Z,24.73
2023-05-07T12:14:50.976Z,24.70
2023-05-07T12:15:53.419Z,24.68
2023-05-07T12:16:55.065Z,24.73
2023-05-07T12:17:56.899Z,24.83
2023-05-07T12:18:59.983Z,24.83
2023-05-07T12:20:01.978Z,24.80
2023-05-07T12:21:05.988Z,24.86
2023-05-07T12:22:11.145Z,24.80
2023-05-07T12:23:13.782Z,24.76
2023-05-07T12:24:16.370Z,24.75
2023-05-07T12:25:21.049Z,24.80
2023-05-07T12:26:22.641Z,24.92
2023-05-07T12:27:24.435Z,25.01
2023-05-07T12:28:26.274Z,25.04
2023-05-07T12:29:28.655Z,25.04
2023-05-07T12:30:30.359Z,25.12
2023-05-07T12:31:32.123Z,25.10
2023-05-07T12:32:37.739Z,25.08
2023-05-07T12:33:39.492Z,25.21
2023-05-07T12:34:45.059Z,25.36
2023-05-07T12:35:49.036Z,25.35
2023-05-07T12:36:50.693Z,25.27
2023-05-07T12:38:00.897Z,24.96
2023-05-07T12:39:02.523Z,24.84
2023-05-07T12:40:11.249Z,24.77
2023-05-07T12:41:15.811Z,24.76
2023-05-07T12:42:20.887Z,24.90
2023-05-07T12:43:31.129Z,24.95
2023-05-07T12:44:34.223Z,25.00
2023-05-07T12:45:42.219Z,25.12
2023-05-07T12:46:43.801Z,25.12
2023-05-07T12:47:46.846Z,25.11
2023-05-07T12:48:49.423Z,25.15
2023-05-07T12:49:51.087Z,25.19
2023-05-07T12:50:54.275Z,25.24
2023-05-07T12:51:56.522Z,25.24
2023-05-07T12:52:58.167Z,25.29
2023-05-07T12:53:59.726Z,25.29
2023-05-07T12:55:10.961Z,25.24
2023-05-07T12:56:12.677Z,25.25
2023-05-07T12:57:14.220Z,25.19
2023-05-07T12:58:21.199Z,25.13
2023-05-07T12:59:35.339Z,25.23
2023-05-07T13:00:38.617Z,25.31
2023-05-07T13:01:40.436Z,25.36
2023-05-07T13:02:45.598Z,25.38
2023-05-07T13:03:51.381Z,25.36
2023-05-07T13:04:54.101Z,25.31
2023-05-07T13:06:17.144Z,25.28
2023-05-07T13:07:18.897Z,25.18
2023-05-07T13:08:33.843Z,25.17
2023-05-07T13:09:35.828Z,25.14
2023-05-07T13:10:37.432Z,25.23
2023-05-07T13:11:39.023Z,25.33
2023-05-07T13:12:40.729Z,25.35
2023-05-07T13:13:42.675Z,25.38
2023-05-07T13:14:44.228Z,25.44
2023-05-07T13:15:45.932Z,25.50
2023-05-07T13:16:48.526Z,25.53
2023-05-07T13:17:50.225Z,25.47
2023-05-07T13:18:51.967Z,25.42
2023-05-07T13:19:53.576Z,25.44
2023-05-07T13:20:55.210Z,25.44
2023-05-07T13:21:56.771Z,25.56
2023-05-07T13:22:58.250Z,25.68
2023-05-07T13:24:00.041Z,25.81
2023-05-07T13:25:01.613Z,25.88
2023-05-07T13:26:08.654Z,25.99
2023-05-07T13:27:16.690Z,26.09
2023-05-07T13:28:18.231Z,26.18
2023-05-07T13:29:19.826Z,26.26
2023-05-07T13:30:21.358Z,26.25
2023-05-07T13:31:23.036Z,26.30
2023-05-07T13:32:24.714Z,26.24